sensor_id;sensor_type;location;lat;lon;timestamp;temperature;humidity
34279;DHT22;20538;51.528;9.942;2024-01-16T00:01:52;1.20;99.90
34279;DHT22;20538;51.528;9.942;2024-01-16T00:04:17;1.20;99.90
34279;DHT22;20538;51.528;9.942;2024-01-16T00:06:43;1.20;99.90
34279;DHT22;20538;51.528;9.942;2024-01-16T00:09:09;1.20;99.90
34279;DHT22;20538;51.528;9.942;2024-01-16T00:11:43;1.20;99.90
34279;DHT22;20538;51.528;9.942;2024-01-16T00:14:09;1.20;99.90
34279;DHT22;20538;51.528;9.942;2024-01-16T00:16:42;1.10;99.90
34279;DHT22;20538;51.528;9.942;2024-01-16T00:19:10;1.20;99.90
34279;DHT22;20538;51.528;9.942;2024-01-16T00:21:39;1.20;99.90
34279;DHT22;20538;51.528;9.942;2024-01-16T00:24:05;1.20;99.90
34279;DHT22;20538;51.528;9.942;2024-01-16T00:26:31;1.20;99.90
34279;DHT22;20538;51.528;9.942;2024-01-16T00:28:56;1.20;99.90
34279;DHT22;20538;51.528;9.942;2024-01-16T00:31:22;1.20;99.90
34279;DHT22;20538;51.528;9.942;2024-01-16T00:33:49;1.20;99.90
34279;DHT22;20538;51.528;9.942;2024-01-16T00:36:14;1.20;99.90
34279;DHT22;20538;51.528;9.942;2024-01-16T00:38:40;1.20;99.90
34279;DHT22;20538;51.528;9.942;2024-01-16T00:41:06;1.20;99.90
34279;DHT22;20538;51.528;9.942;2024-01-16T00:43:32;1.20;99.90
34279;DHT22;20538;51.528;9.942;2024-01-16T00:45:58;1.20;99.90
34279;DHT22;20538;51.528;9.942;2024-01-16T00:48:24;1.20;99.90
34279;DHT22;20538;51.528;9.942;2024-01-16T00:50:49;1.10;99.90
34279;DHT22;20538;51.528;9.942;2024-01-16T00:53:18;1.10;99.90
34279;DHT22;20538;51.528;9.942;2024-01-16T00:55:44;1.10;99.90
34279;DHT22;20538;51.528;9.942;2024-01-16T00:58:09;1.10;99.90
34279;DHT22;20538;51.528;9.942;2024-01-16T01:00:35;1.10;99.90
34279;DHT22;20538;51.528;9.942;2024-01-16T01:03:03;1.10;99.90
34279;DHT22;20538;51.528;9.942;2024-01-16T01:05:29;1.20;99.90
34279;DHT22;20538;51.528;9.942;2024-01-16T01:07:55;1.10;99.90
34279;DHT22;20538;51.528;9.942;2024-01-16T01:10:21;1.20;99.90
34279;DHT22;20538;51.528;9.942;2024-01-16T01:12:47;1.20;99.90
34279;DHT22;20538;51.528;9.942;2024-01-16T01:15:13;1.10;99.90
34279;DHT22;20538;51.528;9.942;2024-01-16T01:17:39;1.10;99.90
34279;DHT22;20538;51.528;9.942;2024-01-16T01:20:06;1.10;99.90
34279;DHT22;20538;51.528;9.942;2024-01-16T01:22:32;1.10;99.90
34279;DHT22;20538;51.528;9.942;2024-01-16T01:24:57;1.10;99.90
34279;DHT22;20538;51.528;9.942;2024-01-16T01:27:24;1.00;99.90
34279;DHT22;20538;51.528;9.942;2024-01-16T01:29:50;1.00;99.90
34279;DHT22;20538;51.528;9.942;2024-01-16T01:32:15;1.10;99.90
34279;DHT22;20538;51.528;9.942;2024-01-16T01:34:44;1.00;99.90
34279;DHT22;20538;51.528;9.942;2024-01-16T01:37:09;1.00;99.90
34279;DHT22;20538;51.528;9.942;2024-01-16T01:39:35;1.00;99.90
34279;DHT22;20538;51.528;9.942;2024-01-16T01:42:00;1.10;99.90
34279;DHT22;20538;51.528;9.942;2024-01-16T01:44:26;1.00;99.90
34279;DHT22;20538;51.528;9.942;2024-01-16T01:46:54;1.00;99.90
34279;DHT22;20538;51.528;9.942;2024-01-16T01:49:21;0.90;99.90
34279;DHT22;20538;51.528;9.942;2024-01-16T01:51:48;0.90;99.90
34279;DHT22;20538;51.528;9.942;2024-01-16T01:54:15;0.90;99.90
34279;DHT22;20538;51.528;9.942;2024-01-16T01:56:43;0.90;99.90
34279;DHT22;20538;51.528;9.942;2024-01-16T01:59:10;0.90;99.90
34279;DHT22;20538;51.528;9.942;2024-01-16T02:01:36;0.90;99.90
34279;DHT22;20538;51.528;9.942;2024-01-16T02:04:04;0.90;99.90
34279;DHT22;20538;51.528;9.942;2024-01-16T02:06:30;0.90;99.90
34279;DHT22;20538;51.528;9.942;2024-01-16T02:08:57;0.90;99.90
34279;DHT22;20538;51.528;9.942;2024-01-16T02:11:22;0.90;99.90
34279;DHT22;20538;51.528;9.942;2024-01-16T02:13:48;0.90;99.90
34279;DHT22;20538;51.528;9.942;2024-01-16T02:16:20;0.90;99.90
34279;DHT22;20538;51.528;9.942;2024-01-16T02:18:46;0.90;99.90
34279;DHT22;20538;51.528;9.942;2024-01-16T02:21:14;0.90;99.90
34279;DHT22;20538;51.528;9.942;2024-01-16T02:23:42;0.80;99.90
34279;DHT22;20538;51.528;9.942;2024-01-16T02:26:08;0.80;99.90
34279;DHT22;20538;51.528;9.942;2024-01-16T02:28:34;0.90;99.90
34279;DHT22;20538;51.528;9.942;2024-01-16T02:31:00;0.90;99.90
34279;DHT22;20538;51.528;9.942;2024-01-16T02:33:26;0.90;99.90
34279;DHT22;20538;51.528;9.942;2024-01-16T02:35:51;0.90;99.90
34279;DHT22;20538;51.528;9.942;2024-01-16T02:38:17;0.90;99.90
34279;DHT22;20538;51.528;9.942;2024-01-16T02:40:42;0.80;99.90
34279;DHT22;20538;51.528;9.942;2024-01-16T02:43:08;0.80;99.90
34279;DHT22;20538;51.528;9.942;2024-01-16T02:45:34;0.80;99.90
34279;DHT22;20538;51.528;9.942;2024-01-16T02:47:59;0.90;99.90
34279;DHT22;20538;51.528;9.942;2024-01-16T02:50:25;0.90;99.90
34279;DHT22;20538;51.528;9.942;2024-01-16T02:52:51;0.80;99.90
34279;DHT22;20538;51.528;9.942;2024-01-16T02:55:16;0.80;99.90
34279;DHT22;20538;51.528;9.942;2024-01-16T02:57:42;0.90;99.90
34279;DHT22;20538;51.528;9.942;2024-01-16T03:00:08;0.90;99.90
34279;DHT22;20538;51.528;9.942;2024-01-16T03:02:34;0.90;99.90
34279;DHT22;20538;51.528;9.942;2024-01-16T03:04:59;0.90;99.90
34279;DHT22;20538;51.528;9.942;2024-01-16T03:07:25;0.80;99.90
34279;DHT22;20538;51.528;9.942;2024-01-16T03:09:51;0.90;99.90
34279;DHT22;20538;51.528;9.942;2024-01-16T03:12:16;0.80;99.90
34279;DHT22;20538;51.528;9.942;2024-01-16T03:14:42;0.90;99.90
34279;DHT22;20538;51.528;9.942;2024-01-16T03:17:08;0.90;99.90
34279;DHT22;20538;51.528;9.942;2024-01-16T03:19:34;0.80;99.90
34279;DHT22;20538;51.528;9.942;2024-01-16T03:21:59;0.80;99.90
34279;DHT22;20538;51.528;9.942;2024-01-16T03:24:25;0.90;99.90
34279;DHT22;20538;51.528;9.942;2024-01-16T03:26:51;0.90;99.90
34279;DHT22;20538;51.528;9.942;2024-01-16T03:29:17;0.80;99.90
34279;DHT22;20538;51.528;9.942;2024-01-16T03:31:42;0.90;99.90
34279;DHT22;20538;51.528;9.942;2024-01-16T03:34:08;0.90;99.90
34279;DHT22;20538;51.528;9.942;2024-01-16T03:36:36;0.90;99.90
34279;DHT22;20538;51.528;9.942;2024-01-16T03:39:02;0.90;99.90
34279;DHT22;20538;51.528;9.942;2024-01-16T03:41:27;0.90;99.90
34279;DHT22;20538;51.528;9.942;2024-01-16T03:43:53;0.80;99.90
34279;DHT22;20538;51.528;9.942;2024-01-16T03:46:22;0.90;99.90
34279;DHT22;20538;51.528;9.942;2024-01-16T03:48:48;0.90;99.90
34279;DHT22;20538;51.528;9.942;2024-01-16T03:51:13;0.90;99.90
34279;DHT22;20538;51.528;9.942;2024-01-16T03:53:41;0.90;99.90
34279;DHT22;20538;51.528;9.942;2024-01-16T03:56:07;0.80;99.90
34279;DHT22;20538;51.528;9.942;2024-01-16T03:58:33;0.70;99.90
34279;DHT22;20538;51.528;9.942;2024-01-16T04:00:59;0.70;99.90
34279;DHT22;20538;51.528;9.942;2024-01-16T04:03:25;0.70;99.90
34279;DHT22;20538;51.528;9.942;2024-01-16T04:05:50;0.70;99.90
34279;DHT22;20538;51.528;9.942;2024-01-16T04:08:16;0.60;99.90
34279;DHT22;20538;51.528;9.942;2024-01-16T04:10:42;0.60;99.90
34279;DHT22;20538;51.528;9.942;2024-01-16T04:13:07;0.60;99.90
34279;DHT22;20538;51.528;9.942;2024-01-16T04:15:33;0.50;99.90
34279;DHT22;20538;51.528;9.942;2024-01-16T04:17:59;0.50;99.90
34279;DHT22;20538;51.528;9.942;2024-01-16T04:20:25;0.50;99.90
34279;DHT22;20538;51.528;9.942;2024-01-16T04:22:51;0.50;99.90
34279;DHT22;20538;51.528;9.942;2024-01-16T04:25:17;0.50;99.90
34279;DHT22;20538;51.528;9.942;2024-01-16T04:27:43;0.50;99.90
34279;DHT22;20538;51.528;9.942;2024-01-16T04:30:09;0.40;99.90
34279;DHT22;20538;51.528;9.942;2024-01-16T04:32:34;0.40;99.90
34279;DHT22;20538;51.528;9.942;2024-01-16T04:35:00;0.40;99.90
34279;DHT22;20538;51.528;9.942;2024-01-16T04:37:26;0.40;99.90
34279;DHT22;20538;51.528;9.942;2024-01-16T04:39:51;0.40;99.90
34279;DHT22;20538;51.528;9.942;2024-01-16T04:42:17;0.40;99.90
34279;DHT22;20538;51.528;9.942;2024-01-16T04:44:45;0.40;99.90
34279;DHT22;20538;51.528;9.942;2024-01-16T04:47:11;0.30;99.90
34279;DHT22;20538;51.528;9.942;2024-01-16T04:49:37;0.20;99.90
34279;DHT22;20538;51.528;9.942;2024-01-16T04:52:03;0.20;99.90
34279;DHT22;20538;51.528;9.942;2024-01-16T04:54:29;0.30;99.90
34279;DHT22;20538;51.528;9.942;2024-01-16T04:56:54;0.20;99.90
34279;DHT22;20538;51.528;9.942;2024-01-16T04:59:20;0.20;99.90
34279;DHT22;20538;51.528;9.942;2024-01-16T05:01:45;0.20;99.90
34279;DHT22;20538;51.528;9.942;2024-01-16T05:04:11;0.30;99.90
34279;DHT22;20538;51.528;9.942;2024-01-16T05:06:37;0.30;99.90
34279;DHT22;20538;51.528;9.942;2024-01-16T05:09:02;0.30;99.90
34279;DHT22;20538;51.528;9.942;2024-01-16T05:11:28;0.30;99.90
34279;DHT22;20538;51.528;9.942;2024-01-16T05:13:54;0.30;99.90
34279;DHT22;20538;51.528;9.942;2024-01-16T05:16:26;0.30;99.90
34279;DHT22;20538;51.528;9.942;2024-01-16T05:18:53;0.40;99.90
34279;DHT22;20538;51.528;9.942;2024-01-16T05:21:19;0.40;99.90
34279;DHT22;20538;51.528;9.942;2024-01-16T05:23:45;0.50;99.90
34279;DHT22;20538;51.528;9.942;2024-01-16T05:26:11;0.50;99.90
34279;DHT22;20538;51.528;9.942;2024-01-16T05:28:38;0.50;99.90
34279;DHT22;20538;51.528;9.942;2024-01-16T05:31:03;0.50;99.90
34279;DHT22;20538;51.528;9.942;2024-01-16T05:33:29;0.50;99.90
34279;DHT22;20538;51.528;9.942;2024-01-16T05:35:57;0.50;99.90
34279;DHT22;20538;51.528;9.942;2024-01-16T05:38:22;0.50;99.90
34279;DHT22;20538;51.528;9.942;2024-01-16T05:40:48;0.60;99.90
34279;DHT22;20538;51.528;9.942;2024-01-16T05:43:14;0.40;99.90
34279;DHT22;20538;51.528;9.942;2024-01-16T05:45:40;0.40;99.90
34279;DHT22;20538;51.528;9.942;2024-01-16T05:48:05;0.30;99.90
34279;DHT22;20538;51.528;9.942;2024-01-16T05:50:33;0.20;99.90
34279;DHT22;20538;51.528;9.942;2024-01-16T05:52:59;0.30;99.90
34279;DHT22;20538;51.528;9.942;2024-01-16T05:55:24;0.40;99.90
34279;DHT22;20538;51.528;9.942;2024-01-16T05:57:50;0.40;99.90
34279;DHT22;20538;51.528;9.942;2024-01-16T06:00:16;0.40;99.90
34279;DHT22;20538;51.528;9.942;2024-01-16T06:02:43;0.40;99.90
34279;DHT22;20538;51.528;9.942;2024-01-16T06:05:09;0.30;99.90
34279;DHT22;20538;51.528;9.942;2024-01-16T06:07:35;0.30;99.90
34279;DHT22;20538;51.528;9.942;2024-01-16T06:10:00;0.30;99.90
34279;DHT22;20538;51.528;9.942;2024-01-16T06:12:26;0.30;99.90
34279;DHT22;20538;51.528;9.942;2024-01-16T06:14:52;0.30;99.90
34279;DHT22;20538;51.528;9.942;2024-01-16T06:17:17;0.30;99.90
34279;DHT22;20538;51.528;9.942;2024-01-16T06:19:43;0.20;99.90
34279;DHT22;20538;51.528;9.942;2024-01-16T06:22:08;0.30;99.90
34279;DHT22;20538;51.528;9.942;2024-01-16T06:24:34;0.30;99.90
34279;DHT22;20538;51.528;9.942;2024-01-16T06:27:04;0.30;99.90
34279;DHT22;20538;51.528;9.942;2024-01-16T06:29:30;0.30;99.90
34279;DHT22;20538;51.528;9.942;2024-01-16T06:31:56;0.30;99.90
34279;DHT22;20538;51.528;9.942;2024-01-16T06:34:21;0.10;99.90
34279;DHT22;20538;51.528;9.942;2024-01-16T06:36:47;0.10;99.90
34279;DHT22;20538;51.528;9.942;2024-01-16T06:39:12;0.10;99.90
34279;DHT22;20538;51.528;9.942;2024-01-16T06:41:40;0.10;99.90
34279;DHT22;20538;51.528;9.942;2024-01-16T06:44:06;0.20;99.90
34279;DHT22;20538;51.528;9.942;2024-01-16T06:46:32;0.30;99.90
34279;DHT22;20538;51.528;9.942;2024-01-16T06:48:57;0.30;99.90
34279;DHT22;20538;51.528;9.942;2024-01-16T06:51:23;0.30;99.90
34279;DHT22;20538;51.528;9.942;2024-01-16T06:53:49;0.30;99.90
34279;DHT22;20538;51.528;9.942;2024-01-16T06:56:14;0.30;99.90
34279;DHT22;20538;51.528;9.942;2024-01-16T06:58:40;0.30;99.90
34279;DHT22;20538;51.528;9.942;2024-01-16T07:01:05;0.20;99.90
34279;DHT22;20538;51.528;9.942;2024-01-16T07:03:31;0.30;99.90
34279;DHT22;20538;51.528;9.942;2024-01-16T07:05:57;0.30;99.90
34279;DHT22;20538;51.528;9.942;2024-01-16T07:08:22;0.30;99.90
34279;DHT22;20538;51.528;9.942;2024-01-16T07:10:48;0.40;99.90
34279;DHT22;20538;51.528;9.942;2024-01-16T07:13:14;0.40;99.90
34279;DHT22;20538;51.528;9.942;2024-01-16T07:15:39;0.40;99.90
34279;DHT22;20538;51.528;9.942;2024-01-16T07:18:05;0.30;99.90
34279;DHT22;20538;51.528;9.942;2024-01-16T07:20:31;0.40;99.90
34279;DHT22;20538;51.528;9.942;2024-01-16T07:22:56;0.40;99.90
34279;DHT22;20538;51.528;9.942;2024-01-16T07:25:22;0.40;99.90
34279;DHT22;20538;51.528;9.942;2024-01-16T07:27:48;0.50;99.90
34279;DHT22;20538;51.528;9.942;2024-01-16T07:30:15;0.40;99.90
34279;DHT22;20538;51.528;9.942;2024-01-16T07:32:41;0.50;99.90
34279;DHT22;20538;51.528;9.942;2024-01-16T07:35:06;0.40;99.90
34279;DHT22;20538;51.528;9.942;2024-01-16T07:37:32;0.40;99.90
34279;DHT22;20538;51.528;9.942;2024-01-16T07:39:58;0.40;99.90
34279;DHT22;20538;51.528;9.942;2024-01-16T07:42:23;0.40;99.90
34279;DHT22;20538;51.528;9.942;2024-01-16T07:44:49;0.40;99.90
34279;DHT22;20538;51.528;9.942;2024-01-16T07:47:16;0.40;99.90
34279;DHT22;20538;51.528;9.942;2024-01-16T07:49:42;0.40;99.90
34279;DHT22;20538;51.528;9.942;2024-01-16T07:52:08;0.50;99.90
34279;DHT22;20538;51.528;9.942;2024-01-16T07:54:34;0.50;99.90
34279;DHT22;20538;51.528;9.942;2024-01-16T07:57:00;0.60;99.90
34279;DHT22;20538;51.528;9.942;2024-01-16T07:59:25;0.60;99.90
34279;DHT22;20538;51.528;9.942;2024-01-16T08:01:52;0.70;99.90
34279;DHT22;20538;51.528;9.942;2024-01-16T08:04:17;0.70;99.90
34279;DHT22;20538;51.528;9.942;2024-01-16T08:06:43;0.70;99.90
34279;DHT22;20538;51.528;9.942;2024-01-16T08:09:09;0.70;99.90
34279;DHT22;20538;51.528;9.942;2024-01-16T08:11:37;0.80;99.90
34279;DHT22;20538;51.528;9.942;2024-01-16T08:14:05;0.80;99.90
34279;DHT22;20538;51.528;9.942;2024-01-16T08:16:30;0.90;99.90
34279;DHT22;20538;51.528;9.942;2024-01-16T08:18:56;0.90;99.90
34279;DHT22;20538;51.528;9.942;2024-01-16T08:21:22;1.00;99.90
34279;DHT22;20538;51.528;9.942;2024-01-16T08:23:48;1.00;99.90
34279;DHT22;20538;51.528;9.942;2024-01-16T08:26:13;1.00;99.90
34279;DHT22;20538;51.528;9.942;2024-01-16T08:28:39;1.00;99.90
34279;DHT22;20538;51.528;9.942;2024-01-16T08:31:04;1.00;99.90
34279;DHT22;20538;51.528;9.942;2024-01-16T08:33:30;0.90;99.90
34279;DHT22;20538;51.528;9.942;2024-01-16T08:35:56;0.90;99.90
34279;DHT22;20538;51.528;9.942;2024-01-16T08:38:22;0.90;99.90
34279;DHT22;20538;51.528;9.942;2024-01-16T08:40:48;0.90;99.90
34279;DHT22;20538;51.528;9.942;2024-01-16T08:43:14;1.00;99.90
34279;DHT22;20538;51.528;9.942;2024-01-16T08:45:39;0.90;99.90
34279;DHT22;20538;51.528;9.942;2024-01-16T08:48:05;1.00;99.90
34279;DHT22;20538;51.528;9.942;2024-01-16T08:50:31;1.00;99.90
34279;DHT22;20538;51.528;9.942;2024-01-16T08:52:56;1.10;99.90
34279;DHT22;20538;51.528;9.942;2024-01-16T08:55:22;1.10;99.90
34279;DHT22;20538;51.528;9.942;2024-01-16T08:57:47;1.20;99.90
34279;DHT22;20538;51.528;9.942;2024-01-16T09:00:13;1.20;99.90
34279;DHT22;20538;51.528;9.942;2024-01-16T09:02:40;1.20;99.90
34279;DHT22;20538;51.528;9.942;2024-01-16T09:05:07;1.30;99.90
34279;DHT22;20538;51.528;9.942;2024-01-16T09:07:32;1.40;99.90
34279;DHT22;20538;51.528;9.942;2024-01-16T09:09:58;1.50;99.90
34279;DHT22;20538;51.528;9.942;2024-01-16T09:12:23;1.50;99.90
34279;DHT22;20538;51.528;9.942;2024-01-16T09:14:49;1.50;99.90
34279;DHT22;20538;51.528;9.942;2024-01-16T09:17:15;1.50;99.90
34279;DHT22;20538;51.528;9.942;2024-01-16T09:19:40;1.50;99.90
34279;DHT22;20538;51.528;9.942;2024-01-16T09:22:07;1.60;99.90
34279;DHT22;20538;51.528;9.942;2024-01-16T09:24:32;1.50;99.90
34279;DHT22;20538;51.528;9.942;2024-01-16T09:26:58;1.50;99.90
34279;DHT22;20538;51.528;9.942;2024-01-16T09:29:24;1.40;99.90
34279;DHT22;20538;51.528;9.942;2024-01-16T09:31:50;1.40;99.90
34279;DHT22;20538;51.528;9.942;2024-01-16T09:34:17;1.40;99.90
34279;DHT22;20538;51.528;9.942;2024-01-16T09:36:43;1.40;99.90
34279;DHT22;20538;51.528;9.942;2024-01-16T09:39:09;1.50;99.90
34279;DHT22;20538;51.528;9.942;2024-01-16T09:41:36;1.40;99.90
34279;DHT22;20538;51.528;9.942;2024-01-16T09:44:03;1.50;99.90
34279;DHT22;20538;51.528;9.942;2024-01-16T09:46:31;1.50;99.90
34279;DHT22;20538;51.528;9.942;2024-01-16T09:48:59;1.60;99.90
34279;DHT22;20538;51.528;9.942;2024-01-16T09:51:25;1.60;99.90
34279;DHT22;20538;51.528;9.942;2024-01-16T09:53:51;1.70;99.90
34279;DHT22;20538;51.528;9.942;2024-01-16T09:56:21;1.80;99.90
34279;DHT22;20538;51.528;9.942;2024-01-16T09:58:49;1.80;99.90
34279;DHT22;20538;51.528;9.942;2024-01-16T10:01:16;1.80;99.90
34279;DHT22;20538;51.528;9.942;2024-01-16T10:03:45;1.90;99.90
34279;DHT22;20538;51.528;9.942;2024-01-16T10:06:11;1.90;99.90
34279;DHT22;20538;51.528;9.942;2024-01-16T10:08:37;1.80;99.90
34279;DHT22;20538;51.528;9.942;2024-01-16T10:11:03;1.80;99.90
34279;DHT22;20538;51.528;9.942;2024-01-16T10:13:29;1.80;99.90
34279;DHT22;20538;51.528;9.942;2024-01-16T10:15:55;1.80;99.90
34279;DHT22;20538;51.528;9.942;2024-01-16T10:18:25;1.80;99.90
34279;DHT22;20538;51.528;9.942;2024-01-16T10:20:51;1.90;99.90
34279;DHT22;20538;51.528;9.942;2024-01-16T10:23:29;2.00;99.90
34279;DHT22;20538;51.528;9.942;2024-01-16T10:26:13;2.10;99.90
34279;DHT22;20538;51.528;9.942;2024-01-16T10:28:41;2.00;99.90
34279;DHT22;20538;51.528;9.942;2024-01-16T10:31:11;2.00;99.90
34279;DHT22;20538;51.528;9.942;2024-01-16T10:33:37;2.10;99.90
34279;DHT22;20538;51.528;9.942;2024-01-16T10:36:15;2.20;99.90
34279;DHT22;20538;51.528;9.942;2024-01-16T10:38:46;2.30;99.90
34279;DHT22;20538;51.528;9.942;2024-01-16T10:41:18;2.40;99.90
34279;DHT22;20538;51.528;9.942;2024-01-16T10:43:44;2.40;99.90
34279;DHT22;20538;51.528;9.942;2024-01-16T10:46:18;2.20;99.90
34279;DHT22;20538;51.528;9.942;2024-01-16T10:48:58;2.20;99.90
34279;DHT22;20538;51.528;9.942;2024-01-16T10:51:26;2.10;99.90
34279;DHT22;20538;51.528;9.942;2024-01-16T10:54:00;2.00;99.90
34279;DHT22;20538;51.528;9.942;2024-01-16T10:56:28;2.10;99.90
34279;DHT22;20538;51.528;9.942;2024-01-16T10:59:21;2.10;99.90
34279;DHT22;20538;51.528;9.942;2024-01-16T11:01:52;2.10;99.90
34279;DHT22;20538;51.528;9.942;2024-01-16T11:04:24;2.20;99.90
34279;DHT22;20538;51.528;9.942;2024-01-16T11:06:52;2.30;99.90
34279;DHT22;20538;51.528;9.942;2024-01-16T11:09:18;2.50;99.90
34279;DHT22;20538;51.528;9.942;2024-01-16T11:11:44;2.60;99.90
34279;DHT22;20538;51.528;9.942;2024-01-16T11:14:12;2.60;99.90
34279;DHT22;20538;51.528;9.942;2024-01-16T11:16:39;2.60;99.90
34279;DHT22;20538;51.528;9.942;2024-01-16T11:19:08;2.40;99.90
34279;DHT22;20538;51.528;9.942;2024-01-16T11:21:38;2.30;99.90
34279;DHT22;20538;51.528;9.942;2024-01-16T11:24:05;2.20;99.90
34279;DHT22;20538;51.528;9.942;2024-01-16T11:26:32;2.30;99.90
34279;DHT22;20538;51.528;9.942;2024-01-16T11:31:54;2.30;99.90
34279;DHT22;20538;51.528;9.942;2024-01-16T11:37:08;2.30;99.90
34279;DHT22;20538;51.528;9.942;2024-01-16T11:39:35;2.30;99.90
34279;DHT22;20538;51.528;9.942;2024-01-16T11:42:01;2.30;99.90
34279;DHT22;20538;51.528;9.942;2024-01-16T11:44:48;2.20;99.90
34279;DHT22;20538;51.528;9.942;2024-01-16T11:47:17;2.10;99.90
34279;DHT22;20538;51.528;9.942;2024-01-16T11:49:43;2.10;99.90
34279;DHT22;20538;51.528;9.942;2024-01-16T11:52:09;2.00;99.90
34279;DHT22;20538;51.528;9.942;2024-01-16T11:54:36;2.00;99.90
34279;DHT22;20538;51.528;9.942;2024-01-16T11:59:57;2.20;99.90
34279;DHT22;20538;51.528;9.942;2024-01-16T12:05:03;2.10;99.90
34279;DHT22;20538;51.528;9.942;2024-01-16T12:07:45;2.20;99.90
34279;DHT22;20538;51.528;9.942;2024-01-16T12:10:12;2.20;99.90
34279;DHT22;20538;51.528;9.942;2024-01-16T12:12:38;2.10;99.90
34279;DHT22;20538;51.528;9.942;2024-01-16T12:15:04;2.20;99.90
34279;DHT22;20538;51.528;9.942;2024-01-16T12:17:32;2.10;99.90
34279;DHT22;20538;51.528;9.942;2024-01-16T12:19:57;2.20;99.90
34279;DHT22;20538;51.528;9.942;2024-01-16T12:22:23;2.30;99.90
34279;DHT22;20538;51.528;9.942;2024-01-16T12:24:49;2.20;99.90
34279;DHT22;20538;51.528;9.942;2024-01-16T12:27:15;2.30;99.90
34279;DHT22;20538;51.528;9.942;2024-01-16T12:29:41;2.30;99.90
34279;DHT22;20538;51.528;9.942;2024-01-16T12:32:10;2.30;99.90
34279;DHT22;20538;51.528;9.942;2024-01-16T12:34:47;2.20;99.90
34279;DHT22;20538;51.528;9.942;2024-01-16T12:37:13;2.40;99.90
34279;DHT22;20538;51.528;9.942;2024-01-16T12:39:40;2.40;99.90
34279;DHT22;20538;51.528;9.942;2024-01-16T12:42:08;2.50;99.90
34279;DHT22;20538;51.528;9.942;2024-01-16T12:44:35;2.50;99.90
34279;DHT22;20538;51.528;9.942;2024-01-16T12:47:02;2.70;99.90
34279;DHT22;20538;51.528;9.942;2024-01-16T12:49:28;2.50;99.90
34279;DHT22;20538;51.528;9.942;2024-01-16T12:52:19;2.50;99.90
34279;DHT22;20538;51.528;9.942;2024-01-16T12:54:47;2.40;99.90
34279;DHT22;20538;51.528;9.942;2024-01-16T12:57:22;2.30;99.90
34279;DHT22;20538;51.528;9.942;2024-01-16T12:59:48;2.40;99.90
34279;DHT22;20538;51.528;9.942;2024-01-16T13:02:21;2.40;99.90
34279;DHT22;20538;51.528;9.942;2024-01-16T13:04:48;2.30;99.90
34279;DHT22;20538;51.528;9.942;2024-01-16T13:07:16;2.40;99.90
34279;DHT22;20538;51.528;9.942;2024-01-16T13:09:44;2.10;99.90
34279;DHT22;20538;51.528;9.942;2024-01-16T13:12:09;2.20;99.90
34279;DHT22;20538;51.528;9.942;2024-01-16T13:14:44;2.30;99.90
34279;DHT22;20538;51.528;9.942;2024-01-16T13:17:10;2.20;99.90
34279;DHT22;20538;51.528;9.942;2024-01-16T13:19:35;2.10;99.90
34279;DHT22;20538;51.528;9.942;2024-01-16T13:22:01;2.20;99.90
34279;DHT22;20538;51.528;9.942;2024-01-16T13:24:28;2.20;99.90
34279;DHT22;20538;51.528;9.942;2024-01-16T13:26:54;2.30;99.90
34279;DHT22;20538;51.528;9.942;2024-01-16T13:29:19;2.10;99.90
34279;DHT22;20538;51.528;9.942;2024-01-16T13:31:45;2.10;99.90
34279;DHT22;20538;51.528;9.942;2024-01-16T13:34:10;2.10;99.90
34279;DHT22;20538;51.528;9.942;2024-01-16T13:36:36;2.10;99.90
34279;DHT22;20538;51.528;9.942;2024-01-16T13:39:02;2.10;99.90
34279;DHT22;20538;51.528;9.942;2024-01-16T13:41:28;2.20;99.90
34279;DHT22;20538;51.528;9.942;2024-01-16T13:43:54;2.20;99.90
34279;DHT22;20538;51.528;9.942;2024-01-16T13:46:20;2.20;99.90
34279;DHT22;20538;51.528;9.942;2024-01-16T13:48:47;2.30;99.90
34279;DHT22;20538;51.528;9.942;2024-01-16T13:51:13;2.30;99.90
34279;DHT22;20538;51.528;9.942;2024-01-16T13:53:38;2.40;99.90
34279;DHT22;20538;51.528;9.942;2024-01-16T13:56:04;2.40;99.90
34279;DHT22;20538;51.528;9.942;2024-01-16T13:58:30;2.40;99.90
34279;DHT22;20538;51.528;9.942;2024-01-16T14:00:57;2.40;99.90
34279;DHT22;20538;51.528;9.942;2024-01-16T14:03:22;2.40;99.90
34279;DHT22;20538;51.528;9.942;2024-01-16T14:05:48;2.40;99.90
34279;DHT22;20538;51.528;9.942;2024-01-16T14:08:13;2.40;99.90
34279;DHT22;20538;51.528;9.942;2024-01-16T14:10:39;2.40;99.90
34279;DHT22;20538;51.528;9.942;2024-01-16T14:13:05;2.30;99.90
34279;DHT22;20538;51.528;9.942;2024-01-16T14:15:31;2.30;99.90
34279;DHT22;20538;51.528;9.942;2024-01-16T14:17:57;2.20;99.90
34279;DHT22;20538;51.528;9.942;2024-01-16T14:20:25;2.20;99.90
34279;DHT22;20538;51.528;9.942;2024-01-16T14:22:55;2.10;99.90
34279;DHT22;20538;51.528;9.942;2024-01-16T14:25:21;2.20;99.90
34279;DHT22;20538;51.528;9.942;2024-01-16T14:28:01;2.10;99.90
34279;DHT22;20538;51.528;9.942;2024-01-16T14:30:29;2.10;99.90
34279;DHT22;20538;51.528;9.942;2024-01-16T14:32:55;2.10;99.90
34279;DHT22;20538;51.528;9.942;2024-01-16T14:35:22;2.10;99.90
34279;DHT22;20538;51.528;9.942;2024-01-16T14:37:49;2.10;99.90
34279;DHT22;20538;51.528;9.942;2024-01-16T14:40:15;2.00;99.90
34279;DHT22;20538;51.528;9.942;2024-01-16T14:42:46;2.00;99.90
34279;DHT22;20538;51.528;9.942;2024-01-16T14:45:14;1.90;99.90
34279;DHT22;20538;51.528;9.942;2024-01-16T14:47:40;1.80;99.90
34279;DHT22;20538;51.528;9.942;2024-01-16T14:50:07;1.70;99.90
34279;DHT22;20538;51.528;9.942;2024-01-16T14:52:35;1.60;99.90
34279;DHT22;20538;51.528;9.942;2024-01-16T14:55:04;1.60;99.90
34279;DHT22;20538;51.528;9.942;2024-01-16T14:57:32;1.60;99.90
34279;DHT22;20538;51.528;9.942;2024-01-16T15:00:04;1.50;99.90
34279;DHT22;20538;51.528;9.942;2024-01-16T15:02:30;1.50;99.90
34279;DHT22;20538;51.528;9.942;2024-01-16T15:04:55;1.50;99.90
34279;DHT22;20538;51.528;9.942;2024-01-16T15:07:21;1.50;99.90
34279;DHT22;20538;51.528;9.942;2024-01-16T15:09:49;1.50;99.90
34279;DHT22;20538;51.528;9.942;2024-01-16T15:12:15;1.60;99.90
34279;DHT22;20538;51.528;9.942;2024-01-16T15:14:41;1.50;99.90
34279;DHT22;20538;51.528;9.942;2024-01-16T15:17:07;1.50;99.90
34279;DHT22;20538;51.528;9.942;2024-01-16T15:19:32;1.50;99.90
34279;DHT22;20538;51.528;9.942;2024-01-16T15:21:58;1.50;99.90
34279;DHT22;20538;51.528;9.942;2024-01-16T15:24:23;1.50;99.90
34279;DHT22;20538;51.528;9.942;2024-01-16T15:26:54;1.40;99.90
34279;DHT22;20538;51.528;9.942;2024-01-16T15:29:20;1.40;99.90
34279;DHT22;20538;51.528;9.942;2024-01-16T15:31:46;1.40;99.90
34279;DHT22;20538;51.528;9.942;2024-01-16T15:34:12;1.40;99.90
34279;DHT22;20538;51.528;9.942;2024-01-16T15:36:38;1.30;99.90
34279;DHT22;20538;51.528;9.942;2024-01-16T15:39:03;1.30;99.90
34279;DHT22;20538;51.528;9.942;2024-01-16T15:41:30;1.20;99.90
34279;DHT22;20538;51.528;9.942;2024-01-16T15:43:55;1.20;99.90
34279;DHT22;20538;51.528;9.942;2024-01-16T15:46:21;1.20;99.90
34279;DHT22;20538;51.528;9.942;2024-01-16T15:48:47;1.20;99.90
34279;DHT22;20538;51.528;9.942;2024-01-16T15:51:16;1.10;99.90
34279;DHT22;20538;51.528;9.942;2024-01-16T15:53:42;1.10;99.90